sensor_id;sensor_type;location;lat;lon;timestamp;P1;durP1;ratioP1;P2;durP2;ratioP2
15669;SDS011;18524;45.190;5.732;2023-02-28T00:00:14;14.07;;;12.37;;
15669;SDS011;18524;45.190;5.732;2023-02-28T00:05:06;12.47;;;10.87;;
15669;SDS011;18524;45.190;5.732;2023-02-28T00:09:58;13.80;;;12.33;;
15669;SDS011;18524;45.190;5.732;2023-02-28T00:14:50;13.13;;;11.73;;
15669;SDS011;18524;45.190;5.732;2023-02-28T00:19:41;13.30;;;11.90;;
15669;SDS011;18524;45.190;5.732;2023-02-28T00:24:31;13.10;;;11.70;;
15669;SDS011;18524;45.190;5.732;2023-02-28T00:29:21;13.33;;;11.20;;
15669;SDS011;18524;45.190;5.732;2023-02-28T00:34:12;14.70;;;11.73;;
15669;SDS011;18524;45.190;5.732;2023-02-28T00:39:02;13.63;;;11.83;;
15669;SDS011;18524;45.190;5.732;2023-02-28T00:43:53;14.17;;;12.30;;
15669;SDS011;18524;45.190;5.732;2023-02-28T00:48:43;13.30;;;11.93;;
15669;SDS011;18524;45.190;5.732;2023-02-28T00:53:33;14.33;;;12.70;;
15669;SDS011;18524;45.190;5.732;2023-02-28T00:58:24;14.73;;;12.40;;
15669;SDS011;18524;45.190;5.732;2023-02-28T01:03:18;14.03;;;12.53;;
15669;SDS011;18524;45.190;5.732;2023-02-28T01:08:09;15.23;;;12.83;;
15669;SDS011;18524;45.190;5.732;2023-02-28T01:13:00;13.93;;;12.53;;
15669;SDS011;18524;45.190;5.732;2023-02-28T01:17:51;14.47;;;12.73;;
15669;SDS011;18524;45.190;5.732;2023-02-28T01:22:41;15.00;;;12.40;;
15669;SDS011;18524;45.190;5.732;2023-02-28T01:27:33;14.17;;;12.60;;
15669;SDS011;18524;45.190;5.732;2023-02-28T01:32:23;14.20;;;12.67;;
15669;SDS011;18524;45.190;5.732;2023-02-28T01:37:13;14.67;;;12.53;;
15669;SDS011;18524;45.190;5.732;2023-02-28T01:42:04;14.70;;;13.10;;
15669;SDS011;18524;45.190;5.732;2023-02-28T01:46:54;14.90;;;12.67;;
15669;SDS011;18524;45.190;5.732;2023-02-28T01:51:46;14.10;;;12.57;;
15669;SDS011;18524;45.190;5.732;2023-02-28T01:56:47;13.90;;;12.40;;
15669;SDS011;18524;45.190;5.732;2023-02-28T02:01:43;16.50;;;12.83;;
15669;SDS011;18524;45.190;5.732;2023-02-28T02:06:35;14.97;;;12.73;;
15669;SDS011;18524;45.190;5.732;2023-02-28T02:11:30;17.63;;;13.47;;
15669;SDS011;18524;45.190;5.732;2023-02-28T02:31:13;16.33;;;13.67;;
15669;SDS011;18524;45.190;5.732;2023-02-28T02:41:18;15.67;;;13.70;;
15669;SDS011;18524;45.190;5.732;2023-02-28T02:46:17;16.43;;;13.77;;
15669;SDS011;18524;45.190;5.732;2023-02-28T02:51:10;15.47;;;13.33;;
15669;SDS011;18524;45.190;5.732;2023-02-28T02:56:04;16.17;;;13.97;;
15669;SDS011;18524;45.190;5.732;2023-02-28T03:00:58;16.73;;;14.10;;
15669;SDS011;18524;45.190;5.732;2023-02-28T03:05:52;16.30;;;14.40;;
15669;SDS011;18524;45.190;5.732;2023-02-28T03:10:43;17.13;;;14.30;;
15669;SDS011;18524;45.190;5.732;2023-02-28T03:15:39;15.57;;;13.90;;
15669;SDS011;18524;45.190;5.732;2023-02-28T03:20:47;18.17;;;14.83;;
15669;SDS011;18524;45.190;5.732;2023-02-28T03:25:55;17.40;;;14.87;;
15669;SDS011;18524;45.190;5.732;2023-02-28T03:35:47;16.90;;;14.63;;
15669;SDS011;18524;45.190;5.732;2023-02-28T03:40:55;18.07;;;14.83;;
15669;SDS011;18524;45.190;5.732;2023-02-28T03:45:52;16.97;;;14.60;;
15669;SDS011;18524;45.190;5.732;2023-02-28T03:50:47;17.00;;;14.27;;
15669;SDS011;18524;45.190;5.732;2023-02-28T03:55:45;17.77;;;15.00;;
15669;SDS011;18524;45.190;5.732;2023-02-28T04:00:40;20.50;;;14.63;;
15669;SDS011;18524;45.190;5.732;2023-02-28T04:05:54;19.50;;;14.70;;
15669;SDS011;18524;45.190;5.732;2023-02-28T04:10:56;18.80;;;15.33;;
15669;SDS011;18524;45.190;5.732;2023-02-28T04:15:52;19.10;;;15.43;;
15669;SDS011;18524;45.190;5.732;2023-02-28T04:20:42;18.73;;;15.80;;
15669;SDS011;18524;45.190;5.732;2023-02-28T04:25:32;18.57;;;15.40;;
15669;SDS011;18524;45.190;5.732;2023-02-28T04:30:23;17.63;;;15.10;;
15669;SDS011;18524;45.190;5.732;2023-02-28T04:35:13;16.40;;;14.53;;
15669;SDS011;18524;45.190;5.732;2023-02-28T04:40:04;18.27;;;15.43;;
15669;SDS011;18524;45.190;5.732;2023-02-28T04:44:55;19.23;;;15.53;;
15669;SDS011;18524;45.190;5.732;2023-02-28T04:49:45;18.57;;;15.67;;
15669;SDS011;18524;45.190;5.732;2023-02-28T04:54:35;17.57;;;14.90;;
15669;SDS011;18524;45.190;5.732;2023-02-28T04:59:28;17.93;;;15.47;;
15669;SDS011;18524;45.190;5.732;2023-02-28T05:04:18;19.13;;;15.80;;
15669;SDS011;18524;45.190;5.732;2023-02-28T05:09:09;17.63;;;14.70;;
15669;SDS011;18524;45.190;5.732;2023-02-28T05:14:02;18.27;;;15.53;;
15669;SDS011;18524;45.190;5.732;2023-02-28T05:18:54;17.77;;;15.00;;
15669;SDS011;18524;45.190;5.732;2023-02-28T05:23:44;17.70;;;14.63;;
15669;SDS011;18524;45.190;5.732;2023-02-28T05:28:34;17.13;;;14.70;;
15669;SDS011;18524;45.190;5.732;2023-02-28T05:33:25;18.77;;;14.73;;
15669;SDS011;18524;45.190;5.732;2023-02-28T05:38:15;18.37;;;15.40;;
15669;SDS011;18524;45.190;5.732;2023-02-28T05:43:07;16.30;;;14.50;;
15669;SDS011;18524;45.190;5.732;2023-02-28T05:48:00;17.73;;;15.03;;
15669;SDS011;18524;45.190;5.732;2023-02-28T05:52:51;19.20;;;14.73;;
15669;SDS011;18524;45.190;5.732;2023-02-28T05:57:42;17.83;;;15.33;;
15669;SDS011;18524;45.190;5.732;2023-02-28T06:02:32;18.33;;;15.03;;
15669;SDS011;18524;45.190;5.732;2023-02-28T06:07:22;17.73;;;14.53;;
15669;SDS011;18524;45.190;5.732;2023-02-28T06:12:13;17.33;;;14.73;;
15669;SDS011;18524;45.190;5.732;2023-02-28T06:17:03;19.30;;;15.03;;
15669;SDS011;18524;45.190;5.732;2023-02-28T06:21:55;18.57;;;14.70;;
15669;SDS011;18524;45.190;5.732;2023-02-28T06:26:46;21.03;;;16.20;;
15669;SDS011;18524;45.190;5.732;2023-02-28T06:31:37;20.30;;;15.90;;
15669;SDS011;18524;45.190;5.732;2023-02-28T06:36:28;19.77;;;14.43;;
15669;SDS011;18524;45.190;5.732;2023-02-28T06:41:18;17.50;;;15.00;;
15669;SDS011;18524;45.190;5.732;2023-02-28T06:46:10;19.57;;;14.83;;
15669;SDS011;18524;45.190;5.732;2023-02-28T06:51:13;17.80;;;14.87;;
15669;SDS011;18524;45.190;5.732;2023-02-28T06:56:09;17.60;;;14.40;;
15669;SDS011;18524;45.190;5.732;2023-02-28T07:01:01;19.43;;;14.67;;
15669;SDS011;18524;45.190;5.732;2023-02-28T07:05:52;18.00;;;14.73;;
15669;SDS011;18524;45.190;5.732;2023-02-28T07:10:42;19.00;;;14.93;;
15669;SDS011;18524;45.190;5.732;2023-02-28T07:15:33;19.30;;;15.13;;
15669;SDS011;18524;45.190;5.732;2023-02-28T07:20:23;19.37;;;14.77;;
15669;SDS011;18524;45.190;5.732;2023-02-28T07:25:14;18.27;;;15.30;;
15669;SDS011;18524;45.190;5.732;2023-02-28T07:30:05;18.77;;;14.90;;
15669;SDS011;18524;45.190;5.732;2023-02-28T07:34:56;22.90;;;15.97;;
15669;SDS011;18524;45.190;5.732;2023-02-28T07:39:46;24.40;;;16.13;;
15669;SDS011;18524;45.190;5.732;2023-02-28T07:44:36;20.37;;;15.57;;
15669;SDS011;18524;45.190;5.732;2023-02-28T07:49:30;17.53;;;14.77;;
15669;SDS011;18524;45.190;5.732;2023-02-28T07:54:22;19.43;;;15.30;;
15669;SDS011;18524;45.190;5.732;2023-02-28T07:59:12;16.27;;;14.50;;
15669;SDS011;18524;45.190;5.732;2023-02-28T08:04:02;17.27;;;14.20;;
15669;SDS011;18524;45.190;5.732;2023-02-28T08:08:53;17.57;;;14.60;;
15669;SDS011;18524;45.190;5.732;2023-02-28T08:13:44;18.10;;;14.50;;
15669;SDS011;18524;45.190;5.732;2023-02-28T08:18:35;17.93;;;14.87;;
15669;SDS011;18524;45.190;5.732;2023-02-28T08:23:26;19.00;;;15.23;;
15669;SDS011;18524;45.190;5.732;2023-02-28T08:28:16;30.20;;;19.17;;
15669;SDS011;18524;45.190;5.732;2023-02-28T08:33:06;17.40;;;15.17;;
15669;SDS011;18524;45.190;5.732;2023-02-28T08:37:57;17.37;;;15.27;;
15669;SDS011;18524;45.190;5.732;2023-02-28T08:42:48;20.07;;;16.60;;
15669;SDS011;18524;45.190;5.732;2023-02-28T08:47:39;18.47;;;15.83;;
15669;SDS011;18524;45.190;5.732;2023-02-28T08:52:30;21.03;;;16.30;;
15669;SDS011;18524;45.190;5.732;2023-02-28T08:57:21;19.57;;;16.53;;
15669;SDS011;18524;45.190;5.732;2023-02-28T09:02:12;17.07;;;15.13;;
15669;SDS011;18524;45.190;5.732;2023-02-28T09:07:04;18.80;;;15.93;;
15669;SDS011;18524;45.190;5.732;2023-02-28T09:11:57;19.40;;;17.00;;
15669;SDS011;18524;45.190;5.732;2023-02-28T09:16:48;20.00;;;16.63;;
15669;SDS011;18524;45.190;5.732;2023-02-28T09:21:38;18.83;;;16.43;;
15669;SDS011;18524;45.190;5.732;2023-02-28T09:26:28;21.77;;;17.53;;
15669;SDS011;18524;45.190;5.732;2023-02-28T09:31:20;19.77;;;17.37;;
15669;SDS011;18524;45.190;5.732;2023-02-28T09:36:13;19.50;;;16.60;;
15669;SDS011;18524;45.190;5.732;2023-02-28T09:41:09;19.77;;;15.97;;
15669;SDS011;18524;45.190;5.732;2023-02-28T09:56:36;18.30;;;16.27;;
15669;SDS011;18524;45.190;5.732;2023-02-28T10:01:34;19.73;;;16.83;;
15669;SDS011;18524;45.190;5.732;2023-02-28T10:06:36;17.87;;;15.97;;
15669;SDS011;18524;45.190;5.732;2023-02-28T10:11:34;20.23;;;16.77;;
15669;SDS011;18524;45.190;5.732;2023-02-28T10:21:47;18.40;;;16.50;;
15669;SDS011;18524;45.190;5.732;2023-02-28T10:26:39;21.57;;;16.90;;
15669;SDS011;18524;45.190;5.732;2023-02-28T10:31:35;19.17;;;16.60;;
15669;SDS011;18524;45.190;5.732;2023-02-28T10:36:25;18.37;;;16.33;;
15669;SDS011;18524;45.190;5.732;2023-02-28T10:41:17;20.90;;;16.77;;
15669;SDS011;18524;45.190;5.732;2023-02-28T10:46:17;19.83;;;17.50;;
15669;SDS011;18524;45.190;5.732;2023-02-28T10:51:16;19.67;;;17.23;;
15669;SDS011;18524;45.190;5.732;2023-02-28T11:00:59;18.90;;;16.73;;
15669;SDS011;18524;45.190;5.732;2023-02-28T11:05:49;21.97;;;16.93;;
15669;SDS011;18524;45.190;5.732;2023-02-28T11:10:44;18.73;;;16.53;;
15669;SDS011;18524;45.190;5.732;2023-02-28T11:15:49;20.33;;;16.73;;
15669;SDS011;18524;45.190;5.732;2023-02-28T11:20:43;22.87;;;17.00;;
15669;SDS011;18524;45.190;5.732;2023-02-28T11:25:40;19.83;;;16.87;;
15669;SDS011;18524;45.190;5.732;2023-02-28T11:30:41;19.40;;;17.30;;
15669;SDS011;18524;45.190;5.732;2023-02-28T11:35:33;19.13;;;16.33;;
15669;SDS011;18524;45.190;5.732;2023-02-28T11:40:39;20.80;;;16.87;;
15669;SDS011;18524;45.190;5.732;2023-02-28T11:45:43;21.13;;;16.23;;
15669;SDS011;18524;45.190;5.732;2023-02-28T11:56:05;19.60;;;17.03;;
15669;SDS011;18524;45.190;5.732;2023-02-28T12:06:28;23.33;;;17.53;;
15669;SDS011;18524;45.190;5.732;2023-02-28T12:16:41;18.20;;;16.27;;
15669;SDS011;18524;45.190;5.732;2023-02-28T12:27:10;20.43;;;17.27;;
15669;SDS011;18524;45.190;5.732;2023-02-28T12:32:09;19.30;;;17.10;;
15669;SDS011;18524;45.190;5.732;2023-02-28T12:37:06;19.23;;;15.97;;
15669;SDS011;18524;45.190;5.732;2023-02-28T12:42:04;20.30;;;17.13;;
15669;SDS011;18524;45.190;5.732;2023-02-28T12:47:04;19.57;;;15.80;;
15669;SDS011;18524;45.190;5.732;2023-02-28T12:51:59;20.50;;;16.10;;
15669;SDS011;18524;45.190;5.732;2023-02-28T12:56:56;19.73;;;16.10;;
15669;SDS011;18524;45.190;5.732;2023-02-28T13:07:08;19.43;;;16.40;;
15669;SDS011;18524;45.190;5.732;2023-02-28T13:12:14;21.00;;;16.40;;
15669;SDS011;18524;45.190;5.732;2023-02-28T13:21:57;16.97;;;15.17;;
15669;SDS011;18524;45.190;5.732;2023-02-28T13:37:00;16.03;;;14.43;;
15669;SDS011;18524;45.190;5.732;2023-02-28T13:47:36;16.40;;;14.67;;
15669;SDS011;18524;45.190;5.732;2023-02-28T13:52:33;18.70;;;14.77;;
15669;SDS011;18524;45.190;5.732;2023-02-28T14:03:06;17.53;;;14.73;;
15669;SDS011;18524;45.190;5.732;2023-02-28T14:08:19;15.80;;;14.07;;
15669;SDS011;18524;45.190;5.732;2023-02-28T14:13:14;16.53;;;14.73;;
15669;SDS011;18524;45.190;5.732;2023-02-28T14:18:37;16.37;;;14.67;;
15669;SDS011;18524;45.190;5.732;2023-02-28T14:34:32;15.80;;;14.07;;
15669;SDS011;18524;45.190;5.732;2023-02-28T14:39:29;16.33;;;14.37;;
15669;SDS011;18524;45.190;5.732;2023-02-28T14:44:22;16.00;;;14.40;;
15669;SDS011;18524;45.190;5.732;2023-02-28T14:49:27;16.30;;;14.60;;
15669;SDS011;18524;45.190;5.732;2023-02-28T14:54:20;16.27;;;14.57;;
15669;SDS011;18524;45.190;5.732;2023-02-28T14:59:27;16.50;;;14.80;;
15669;SDS011;18524;45.190;5.732;2023-02-28T15:04:25;17.47;;;15.37;;
15669;SDS011;18524;45.190;5.732;2023-02-28T15:09:17;17.17;;;14.83;;
15669;SDS011;18524;45.190;5.732;2023-02-28T15:14:13;16.20;;;14.50;;
15669;SDS011;18524;45.190;5.732;2023-02-28T15:24:31;16.70;;;14.90;;
15669;SDS011;18524;45.190;5.732;2023-02-28T15:29:44;17.00;;;15.20;;
15669;SDS011;18524;45.190;5.732;2023-02-28T15:34:41;17.37;;;15.53;;
15669;SDS011;18524;45.190;5.732;2023-02-28T15:39:33;17.20;;;14.97;;
15669;SDS011;18524;45.190;5.732;2023-02-28T15:44:33;17.63;;;15.70;;
15669;SDS011;18524;45.190;5.732;2023-02-28T15:49:24;18.00;;;16.10;;
15669;SDS011;18524;45.190;5.732;2023-02-28T15:54:27;20.90;;;15.97;;
15669;SDS011;18524;45.190;5.732;2023-02-28T15:59:20;19.73;;;16.37;;
15669;SDS011;18524;45.190;5.732;2023-02-28T16:04:18;19.67;;;16.57;;
15669;SDS011;18524;45.190;5.732;2023-02-28T16:09:14;20.87;;;16.13;;
15669;SDS011;18524;45.190;5.732;2023-02-28T16:14:05;18.77;;;15.83;;
15669;SDS011;18524;45.190;5.732;2023-02-28T16:18:56;18.43;;;16.07;;
15669;SDS011;18524;45.190;5.732;2023-02-28T16:23:46;20.30;;;16.43;;
15669;SDS011;18524;45.190;5.732;2023-02-28T16:28:37;18.27;;;15.63;;
15669;SDS011;18524;45.190;5.732;2023-02-28T16:33:29;19.40;;;16.57;;
15669;SDS011;18524;45.190;5.732;2023-02-28T16:38:19;20.47;;;17.03;;
15669;SDS011;18524;45.190;5.732;2023-02-28T16:43:22;20.20;;;16.87;;
15669;SDS011;18524;45.190;5.732;2023-02-28T16:48:15;20.90;;;17.70;;
15669;SDS011;18524;45.190;5.732;2023-02-28T16:53:06;22.27;;;17.97;;
15669;SDS011;18524;45.190;5.732;2023-02-28T16:57:57;21.43;;;16.93;;
15669;SDS011;18524;45.190;5.732;2023-02-28T17:02:49;21.57;;;17.47;;
15669;SDS011;18524;45.190;5.732;2023-02-28T17:07:41;21.30;;;17.50;;
15669;SDS011;18524;45.190;5.732;2023-02-28T17:12:32;20.70;;;17.57;;
15669;SDS011;18524;45.190;5.732;2023-02-28T17:17:22;19.93;;;16.97;;
15669;SDS011;18524;45.190;5.732;2023-02-28T17:22:12;20.00;;;16.60;;
15669;SDS011;18524;45.190;5.732;2023-02-28T17:27:03;19.70;;;16.63;;
15669;SDS011;18524;45.190;5.732;2023-02-28T17:31:54;20.33;;;16.77;;
15669;SDS011;18524;45.190;5.732;2023-02-28T17:36:45;21.10;;;17.03;;
15669;SDS011;18524;45.190;5.732;2023-02-28T17:41:37;21.17;;;16.77;;
15669;SDS011;18524;45.190;5.732;2023-02-28T17:46:27;20.67;;;17.53;;
15669;SDS011;18524;45.190;5.732;2023-02-28T17:51:18;19.97;;;16.53;;
15669;SDS011;18524;45.190;5.732;2023-02-28T17:56:11;21.37;;;17.77;;
15669;SDS011;18524;45.190;5.732;2023-02-28T18:01:09;20.57;;;16.63;;
15669;SDS011;18524;45.190;5.732;2023-02-28T18:06:00;19.90;;;16.70;;
15669;SDS011;18524;45.190;5.732;2023-02-28T18:10:52;22.30;;;17.37;;
15669;SDS011;18524;45.190;5.732;2023-02-28T18:15:43;21.70;;;17.30;;
15669;SDS011;18524;45.190;5.732;2023-02-28T18:20:33;20.77;;;17.37;;
15669;SDS011;18524;45.190;5.732;2023-02-28T18:25:24;21.33;;;17.00;;
15669;SDS011;18524;45.190;5.732;2023-02-28T18:30:15;20.23;;;16.27;;
15669;SDS011;18524;45.190;5.732;2023-02-28T18:35:05;19.10;;;17.00;;
15669;SDS011;18524;45.190;5.732;2023-02-28T18:39:56;18.83;;;16.80;;
15669;SDS011;18524;45.190;5.732;2023-02-28T18:44:46;19.37;;;17.20;;
15669;SDS011;18524;45.190;5.732;2023-02-28T18:49:37;19.07;;;15.90;;
15669;SDS011;18524;45.190;5.732;2023-02-28T18:54:27;19.93;;;16.60;;
15669;SDS011;18524;45.190;5.732;2023-02-28T18:59:18;20.37;;;17.17;;
15669;SDS011;18524;45.190;5.732;2023-02-28T19:04:10;19.37;;;16.30;;
15669;SDS011;18524;45.190;5.732;2023-02-28T19:09:02;20.07;;;16.77;;
15669;SDS011;18524;45.190;5.732;2023-02-28T19:13:53;19.67;;;15.77;;
15669;SDS011;18524;45.190;5.732;2023-02-28T19:18:44;21.00;;;17.50;;
15669;SDS011;18524;45.190;5.732;2023-02-28T19:23:35;19.10;;;16.23;;
15669;SDS011;18524;45.190;5.732;2023-02-28T19:28:27;25.97;;;20.43;;
15669;SDS011;18524;45.190;5.732;2023-02-28T19:33:19;20.60;;;16.93;;
15669;SDS011;18524;45.190;5.732;2023-02-28T19:38:09;19.83;;;16.90;;
15669;SDS011;18524;45.190;5.732;2023-02-28T19:43:00;19.67;;;16.60;;
15669;SDS011;18524;45.190;5.732;2023-02-28T19:47:50;24.57;;;18.63;;
15669;SDS011;18524;45.190;5.732;2023-02-28T19:52:41;35.17;;;20.97;;
15669;SDS011;18524;45.190;5.732;2023-02-28T19:57:32;33.00;;;22.50;;
15669;SDS011;18524;45.190;5.732;2023-02-28T20:02:22;28.47;;;20.87;;
15669;SDS011;18524;45.190;5.732;2023-02-28T20:07:13;31.57;;;21.10;;
15669;SDS011;18524;45.190;5.732;2023-02-28T20:12:04;28.47;;;19.50;;
15669;SDS011;18524;45.190;5.732;2023-02-28T20:16:54;24.53;;;18.57;;
15669;SDS011;18524;45.190;5.732;2023-02-28T20:21:44;27.20;;;20.23;;
15669;SDS011;18524;45.190;5.732;2023-02-28T20:26:36;20.97;;;16.83;;
15669;SDS011;18524;45.190;5.732;2023-02-28T20:31:27;22.53;;;18.50;;
15669;SDS011;18524;45.190;5.732;2023-02-28T20:36:19;20.70;;;17.60;;
15669;SDS011;18524;45.190;5.732;2023-02-28T20:41:10;22.70;;;18.57;;
15669;SDS011;18524;45.190;5.732;2023-02-28T20:46:01;17.10;;;14.87;;
15669;SDS011;18524;45.190;5.732;2023-02-28T20:50:54;17.43;;;15.10;;
15669;SDS011;18524;45.190;5.732;2023-02-28T20:55:52;18.07;;;15.60;;
15669;SDS011;18524;45.190;5.732;2023-02-28T21:00:46;20.77;;;17.93;;
15669;SDS011;18524;45.190;5.732;2023-02-28T21:05:36;26.63;;;21.30;;
15669;SDS011;18524;45.190;5.732;2023-02-28T21:10:27;21.47;;;17.10;;
15669;SDS011;18524;45.190;5.732;2023-02-28T21:15:17;21.93;;;17.80;;
15669;SDS011;18524;45.190;5.732;2023-02-28T21:20:08;25.57;;;18.07;;
15669;SDS011;18524;45.190;5.732;2023-02-28T21:24:59;27.13;;;19.70;;
15669;SDS011;18524;45.190;5.732;2023-02-28T21:29:49;22.43;;;17.83;;
15669;SDS011;18524;45.190;5.732;2023-02-28T21:34:39;18.57;;;16.30;;
15669;SDS011;18524;45.190;5.732;2023-02-28T21:39:30;23.50;;;18.10;;
15669;SDS011;18524;45.190;5.732;2023-02-28T21:44:20;20.97;;;16.63;;
15669;SDS011;18524;45.190;5.732;2023-02-28T21:49:11;27.13;;;19.97;;
15669;SDS011;18524;45.190;5.732;2023-02-28T21:54:03;21.27;;;17.30;;
15669;SDS011;18524;45.190;5.732;2023-02-28T21:58:53;20.17;;;16.03;;
15669;SDS011;18524;45.190;5.732;2023-02-28T22:03:49;23.13;;;17.10;;
15669;SDS011;18524;45.190;5.732;2023-02-28T22:08:40;21.57;;;16.93;;
15669;SDS011;18524;45.190;5.732;2023-02-28T22:13:32;23.43;;;17.20;;
15669;SDS011;18524;45.190;5.732;2023-02-28T22:18:22;26.83;;;19.40;;
15669;SDS011;18524;45.190;5.732;2023-02-28T22:23:13;25.37;;;18.30;;
15669;SDS011;18524;45.190;5.732;2023-02-28T22:28:03;20.87;;;16.27;;
15669;SDS011;18524;45.190;5.732;2023-02-28T22:32:53;20.67;;;17.50;;
15669;SDS011;18524;45.190;5.732;2023-02-28T22:37:46;20.07;;;16.67;;
15669;SDS011;18524;45.190;5.732;2023-02-28T22:42:36;19.10;;;15.97;;
15669;SDS011;18524;45.190;5.732;2023-02-28T22:47:27;20.90;;;16.67;;
15669;SDS011;18524;45.190;5.732;2023-02-28T22:52:17;22.97;;;16.83;;
15669;SDS011;18524;45.190;5.732;2023-02-28T22:57:09;18.57;;;15.80;;
15669;SDS011;18524;45.190;5.732;2023-02-28T23:02:00;20.70;;;16.60;;
15669;SDS011;18524;45.190;5.732;2023-02-28T23:06:51;19.97;;;16.43;;
15669;SDS011;18524;45.190;5.732;2023-02-28T23:11:42;19.90;;;16.43;;
15669;SDS011;18524;45.190;5.732;2023-02-28T23:21:29;18.80;;;16.77;;
15669;SDS011;18524;45.190;5.732;2023-02-28T23:26:20;19.57;;;16.87;;
15669;SDS011;18524;45.190;5.732;2023-02-28T23:31:11;18.87;;;15.87;;
15669;SDS011;18524;45.190;5.732;2023-02-28T23:36:09;18.07;;;16.00;;
15669;SDS011;18524;45.190;5.732;2023-02-28T23:41:01;19.30;;;17.17;;
15669;SDS011;18524;45.190;5.732;2023-02-28T23:45:57;19.23;;;16.93;;
15669;SDS011;18524;45.190;5.732;2023-02-28T23:50:48;20.53;;;16.73;;
15669;SDS011;18524;45.190;5.732;2023-02-28T23:55:44;22.10;;;17.23;;
